OMDB/DXB METAR and TAF weather

Enter ICAO airport designator
Station Type Date Time Source
OMDB METAR 2019/06/18 04:30 UTC NOAA

OMDB 180430Z VRB03KT 3000 HZ FEW015 33/29 Q0998 BECMG 6000 NSW


Station Type Date Time Source
OMDB Decoded METAR 2019/06/18 04:30 UTC NOAA

Dubai International Airport, United Arab Emirates (OMDB) 25-15N 055-20E 5M
Jun 18, 2019 - 12:30 AM EDT / 2019.06.18 0430 UTC
Wind: Variable at 3 MPH (3 KT):0
Visibility: 1 mile(s):0
Sky conditions: mostly clear
Weather: haze
Temperature: 91 F (33 C)
Heat index: 116.2 F (46.8 C):1
Dew Point: 84 F (29 C)
Relative Humidity: 79%
Pressure (altimeter): 29.47 in. Hg (0998 hPa)
ob: OMDB 180430Z VRB03KT 3000 HZ FEW015 33/29 Q0998 BECMG 6000 NSW
cycle: 4

Station Type Date Time Source
OMDB TAF 2019/06/18 03:06 UTC NOAA

TAF
AMD TAF
AMD OMDB 180303Z 1803/1906 19008KT 0500 FG VV///
BECMG 1803/1805 8000 NSW NSC
BECMG 1807/1809 30012KT
BECMG 1816/1818 20008KT PROB30 1822/1904 3000 BR

Example: see airport list